Time;durP1;ratioP1;P1;durP2;ratioP2;P2;SDS_P1;SDS_P2;PMS_P1;PMS_P2;Temp;Humidity;BMP_temperature;BMP_pressure;BME280_temperature;BME280_humidity;BME280_pressure;Samples;Min_cycle;Max_cycle;Signal;HPM_P1;HPM_P2
2023/06/08 00:00:23;;;;;;;12.48;6.65;;;12.70;99.90;;;;;;5072201;28;20028;-70
2023/06/08 00:02:49;;;;;;;17.23;6.93;;;12.70;99.90;;;;;;5072197;28;20403;-72
2023/06/08 00:05:16;;;;;;;14.50;7.53;;;12.70;99.90;;;;;;5071423;28;20116;-72
2023/06/08 00:07:42;;;;;;;15.93;6.30;;;12.70;99.90;;;;;;5071828;28;20049;-72
2023/06/08 00:10:10;;;;;;;17.77;7.40;;;12.70;99.90;;;;;;5071963;28;20033;-69
2023/06/08 00:12:36;;;;;;;17.60;7.07;;;12.70;99.90;;;;;;5071845;28;20040;-70
2023/06/08 00:15:03;;;;;;;14.60;6.72;;;12.70;99.90;;;;;;5072116;28;20041;-70
2023/06/08 00:17:31;;;;;;;16.67;7.75;;;12.80;99.90;;;;;;5072044;28;20043;-69
2023/06/08 00:19:59;;;;;;;17.67;7.43;;;12.70;99.90;;;;;;5071897;28;20089;-69
2023/06/08 00:22:26;;;;;;;17.63;7.78;;;12.70;99.90;;;;;;5071711;28;20508;-70
2023/06/08 00:24:52;;;;;;;14.98;6.70;;;12.80;99.90;;;;;;5070483;28;20519;-71
2023/06/08 00:27:18;;;;;;;17.25;7.53;;;12.80;99.90;;;;;;5071894;28;20045;-69
2023/06/08 00:29:43;;;;;;;17.25;6.53;;;12.70;99.90;;;;;;5071845;28;20051;-70
2023/06/08 00:32:09;;;;;;;14.60;6.65;;;12.80;99.90;;;;;;5070705;28;20037;-70
2023/06/08 00:34:35;;;;;;;11.15;5.63;;;12.70;99.90;;;;;;5053663;28;20051;-70
2023/06/08 00:37:00;;;;;;;27.23;8.00;;;12.70;99.90;;;;;;5071633;28;20098;-70
2023/06/08 00:39:26;;;;;;;13.32;6.15;;;12.70;99.90;;;;;;5070397;28;20033;-70
2023/06/08 00:41:51;;;;;;;17.20;6.57;;;12.70;99.90;;;;;;5071824;28;20467;-70
2023/06/08 00:44:17;;;;;;;14.65;8.35;;;12.70;99.90;;;;;;5071749;28;20400;-72
2023/06/08 00:46:43;;;;;;;15.77;8.02;;;12.80;99.90;;;;;;5071646;28;20037;-69
2023/06/08 00:49:13;;;;;;;15.25;6.65;;;12.70;99.90;;;;;;5071516;28;20131;-70
2023/06/08 00:51:41;;;;;;;21.00;9.10;;;12.80;99.90;;;;;;5070526;28;20046;-70
2023/06/08 00:54:10;;;;;;;17.30;7.97;;;12.70;99.90;;;;;;5071589;28;20100;-70
2023/06/08 00:56:38;;;;;;;17.73;7.68;;;12.70;99.90;;;;;;5070178;28;20500;-70
2023/06/08 00:59:05;;;;;;;16.67;8.13;;;12.70;99.90;;;;;;5071566;28;20039;-69
2023/06/08 01:01:31;;;;;;;16.60;7.82;;;12.60;99.90;;;;;;5071613;28;20040;-70
2023/06/08 01:04:05;;;;;;;18.55;8.30;;;12.70;99.90;;;;;;5071457;28;20403;-70
2023/06/08 01:06:33;;;;;;;21.73;8.75;;;12.60;99.90;;;;;;5070215;28;20048;-70
2023/06/08 01:09:12;;;;;;;20.67;7.70;;;12.60;99.90;;;;;;5070233;28;20052;-69
2023/06/08 01:12:11;;;;;;;14.25;6.35;;;12.60;99.90;;;;;;5071616;28;20109;-70
2023/06/08 01:14:50;;;;;;;15.48;6.65;;;12.60;99.90;;;;;;5067104;28;20098;-70
2023/06/08 01:17:23;;;;;;;13.57;6.70;;;12.60;99.90;;;;;;5072435;28;20040;-70
2023/06/08 01:20:09;;;;;;;24.80;9.13;;;12.60;99.90;;;;;;5057298;28;20385;-70
2023/06/08 01:22:56;;;;;;;18.77;6.75;;;12.50;99.90;;;;;;5075237;28;20040;-70
2023/06/08 01:25:28;;;;;;;17.40;7.57;;;12.60;99.90;;;;;;5073936;28;20055;-70
2023/06/08 01:28:12;;;;;;;22.58;9.35;;;12.70;99.90;;;;;;5075269;28;20404;-70
2023/06/08 01:30:38;;;;;;;;;;;12.70;99.90;;;;;;5074212;28;20087;-70
2023/06/08 01:33:03;;;;;;;14.20;6.32;;;12.70;99.90;;;;;;5074937;28;20444;-70
2023/06/08 01:35:29;;;;;;;15.65;7.95;;;12.60;99.90;;;;;;5074935;28;20028;-70
2023/06/08 01:38:01;;;;;;;15.13;7.18;;;12.70;99.90;;;;;;5073788;28;20111;-70
2023/06/08 01:40:34;;;;;;;16.65;8.27;;;12.70;99.90;;;;;;5074792;28;20549;-70
2023/06/08 01:43:01;;;;;;;16.52;7.63;;;12.70;99.90;;;;;;5073507;28;20041;-70
2023/06/08 01:45:32;;;;;;;16.58;7.38;;;12.70;99.90;;;;;;5057315;28;20408;-70
2023/06/08 01:48:08;;;;;;;18.58;7.80;;;12.80;99.90;;;;;;5073505;28;20385;-71
2023/06/08 01:50:35;;;;;;;15.88;8.05;;;12.70;99.90;;;;;;5074675;28;20052;-70
2023/06/08 01:53:01;;;;;;;18.80;8.23;;;12.70;99.90;;;;;;5073671;28;20041;-70
2023/06/08 01:55:29;;;;;;;20.17;9.07;;;12.80;99.90;;;;;;5074747;28;20048;-70
2023/06/08 01:57:55;;;;;;;18.13;7.80;;;12.80;99.90;;;;;;5056594;28;20596;-70
2023/06/08 02:00:22;;;;;;;15.50;7.55;;;12.80;99.90;;;;;;5074347;28;20573;-70
2023/06/08 02:02:47;;;;;;;20.77;7.40;;;12.80;99.90;;;;;;5073217;28;20028;-70
2023/06/08 02:05:15;;;;;;;18.63;6.97;;;12.80;99.90;;;;;;5074389;28;20029;-71
2023/06/08 02:07:42;;;;;;;20.63;7.47;;;12.80;99.90;;;;;;5074329;28;20431;-70
2023/06/08 02:10:10;;;;;;;14.60;7.25;;;12.80;99.90;;;;;;5074344;28;20050;-70
2023/06/08 02:12:35;;;;;;;13.35;7.00;;;12.70;99.90;;;;;;5074289;28;20040;-70
2023/06/08 02:15:01;;;;;;;18.95;7.18;;;12.70;99.90;;;;;;5074268;28;20043;-70
2023/06/08 02:17:33;;;;;;;16.95;8.15;;;12.60;99.90;;;;;;5073996;28;20047;-70
2023/06/08 02:20:00;;;;;;;21.52;8.40;;;12.70;99.90;;;;;;5074356;28;20040;-70
2023/06/08 02:22:27;;;;;;;15.95;7.97;;;12.70;99.90;;;;;;5074197;28;20089;-71
2023/06/08 02:24:53;;;;;;;23.75;8.80;;;12.60;99.90;;;;;;5074365;28;20041;-71
2023/06/08 02:27:18;;;;;;;19.80;8.63;;;12.60;99.90;;;;;;5074171;28;20040;-71
2023/06/08 02:29:44;;;;;;;16.98;7.72;;;12.70;99.90;;;;;;5072898;28;20036;-70
2023/06/08 02:32:09;;;;;;;18.05;8.40;;;12.60;99.90;;;;;;5073899;28;20094;-70
2023/06/08 02:34:37;;;;;;;17.55;8.63;;;12.60;99.90;;;;;;5072585;28;20040;-70
2023/06/08 02:37:03;;;;;;;21.27;7.95;;;12.70;99.90;;;;;;5073814;28;20119;-70
2023/06/08 02:39:29;;;;;;;20.27;8.27;;;12.70;99.90;;;;;;5073663;28;20516;-71
2023/06/08 02:41:54;;;;;;;15.95;6.95;;;12.70;99.90;;;;;;5072457;28;20119;-70
2023/06/08 02:44:20;;;;;;;24.10;8.63;;;12.70;99.90;;;;;;5055694;28;20042;-70
2023/06/08 02:46:46;;;;;;;14.05;9.02;;;12.70;99.90;;;;;;5073491;28;20036;-70
2023/06/08 02:49:12;;;;;;;19.10;10.40;;;12.70;99.90;;;;;;5072482;28;20510;-70
2023/06/08 02:51:37;;;;;;;20.48;9.85;;;12.60;99.90;;;;;;5073772;28;20078;-70
2023/06/08 02:54:03;;;;;;;22.30;10.65;;;12.60;99.90;;;;;;5073556;28;20039;-71
2023/06/08 02:56:29;;;;;;;22.85;10.90;;;12.50;99.90;;;;;;5073389;28;20048;-70
2023/06/08 02:58:54;;;;;;;26.50;11.35;;;12.60;99.90;;;;;;5073392;28;20056;-70
2023/06/08 03:01:20;;;;;;;20.83;10.07;;;12.60;99.90;;;;;;5072324;28;20214;-70
2023/06/08 03:03:48;;;;;;;16.17;9.82;;;12.60;99.90;;;;;;5073351;28;20523;-70
2023/06/08 03:06:17;;;;;;;22.83;9.45;;;12.50;99.90;;;;;;5073294;28;20044;-70
2023/06/08 03:08:53;;;;;;;16.55;8.63;;;12.60;99.90;;;;;;5071829;28;20044;-71
2023/06/08 03:11:20;;;;;;;19.40;9.05;;;12.60;99.90;;;;;;5072197;28;20040;-70
2023/06/08 03:13:46;;;;;;;21.50;9.18;;;12.60;99.90;;;;;;5072100;28;20470;-70
2023/06/08 03:16:12;;;;;;;14.50;7.88;;;12.50;99.90;;;;;;5071905;28;20171;-71
2023/06/08 03:18:39;;;;;;;17.05;8.85;;;12.60;99.90;;;;;;5071690;28;20115;-71
2023/06/08 03:21:07;;;;;;;19.23;8.43;;;12.50;99.90;;;;;;5071936;28;20032;-70
2023/06/08 03:23:35;;;;;;;18.42;8.05;;;12.60;99.90;;;;;;5072837;28;20033;-70
2023/06/08 03:26:01;;;;;;;16.38;8.35;;;12.50;99.90;;;;;;5072774;28;20047;-71
2023/06/08 03:28:27;;;;;;;20.67;8.20;;;12.50;99.90;;;;;;5072586;28;20040;-71
2023/06/08 03:30:53;;;;;;;15.60;8.05;;;12.40;99.90;;;;;;5071510;28;20044;-70
2023/06/08 03:33:19;;;;;;;19.63;8.45;;;12.40;99.90;;;;;;5054697;28;20046;-70
2023/06/08 03:35:46;;;;;;;18.90;8.50;;;12.40;99.90;;;;;;5072812;28;20381;-70
2023/06/08 03:38:11;;;;;;;19.00;8.95;;;12.30;99.90;;;;;;5071440;28;20067;-71
2023/06/08 03:40:37;;;;;;;18.90;9.88;;;12.30;99.90;;;;;;5071222;28;20048;-70
2023/06/08 03:43:02;;;;;;;22.85;9.65;;;12.40;99.90;;;;;;5071095;28;20041;-70
2023/06/08 03:45:28;;;;;;;18.27;9.20;;;12.40;99.90;;;;;;5072609;28;20036;-70
2023/06/08 03:47:55;;;;;;;19.27;9.48;;;12.30;99.90;;;;;;5071161;28;20499;-71
2023/06/08 03:50:21;;;;;;;19.65;10.20;;;12.40;99.90;;;;;;5071178;28;20070;-70
2023/06/08 03:52:47;;;;;;;21.83;9.23;;;12.30;99.90;;;;;;5072312;28;20389;-70
2023/06/08 03:55:12;;;;;;;21.83;9.32;;;12.30;99.90;;;;;;5070993;28;20052;-70
2023/06/08 03:57:38;;;;;;;23.45;8.77;;;12.30;99.90;;;;;;5071963;28;20033;-70
2023/06/08 04:00:11;;;;;;;17.52;8.57;;;12.40;99.90;;;;;;5072066;28;20423;-70
2023/06/08 04:02:40;;;;;;;17.27;8.27;;;12.40;99.90;;;;;;5072122;28;20051;-70
2023/06/08 04:05:08;;;;;;;17.98;8.52;;;12.30;99.90;;;;;;5072310;28;20040;-70
2023/06/08 04:07:35;;;;;;;30.98;11.40;;;12.30;99.90;;;;;;5070719;28;20063;-70
2023/06/08 04:10:04;;;;;;;19.63;9.77;;;12.30;99.90;;;;;;5071794;28;20044;-70
2023/06/08 04:12:31;;;;;;;20.17;10.10;;;12.40;99.90;;;;;;5072146;28;20079;-70
2023/06/08 04:14:57;;;;;;;15.60;9.90;;;12.40;99.90;;;;;;5070889;28;20546;-70
2023/06/08 04:17:23;;;;;;;16.90;9.73;;;12.40;99.90;;;;;;5071824;28;20036;-70
2023/06/08 04:19:49;;;;;;;20.50;10.18;;;12.40;99.90;;;;;;5070568;28;20047;-70
2023/06/08 04:22:15;;;;;;;16.17;8.55;;;12.30;99.90;;;;;;5070793;28;20045;-71
2023/06/08 04:24:42;;;;;;;21.90;10.15;;;12.50;99.90;;;;;;5053617;28;20048;-71
2023/06/08 04:27:07;;;;;;;19.15;9.85;;;12.50;99.90;;;;;;5071739;28;20044;-71
2023/06/08 04:29:33;;;;;;;18.40;8.23;;;12.50;99.90;;;;;;5071688;28;20115;-71
2023/06/08 04:31:59;;;;;;;16.15;7.85;;;12.50;99.90;;;;;;5071812;28;20503;-71
2023/06/08 04:34:25;;;;;;;17.40;9.13;;;12.50;99.90;;;;;;5071697;28;20041;-71
2023/06/08 04:36:51;;;;;;;16.92;7.35;;;12.60;99.90;;;;;;5070405;28;20045;-72
2023/06/08 04:39:17;;;;;;;15.10;7.68;;;12.60;99.90;;;;;;5070194;28;20051;-71
2023/06/08 04:41:44;;;;;;;20.52;8.93;;;12.60;99.90;;;;;;5070927;28;20048;-72
2023/06/08 04:44:13;;;;;;;21.52;8.70;;;12.50;99.90;;;;;;5071682;28;20036;-71
2023/06/08 04:46:42;;;;;;;23.00;8.88;;;12.60;99.90;;;;;;5071695;28;20048;-71
2023/06/08 04:49:08;;;;;;;19.15;8.15;;;12.50;99.90;;;;;;5070228;28;20503;-71
2023/06/08 04:51:39;;;;;;;18.38;9.45;;;12.50;99.90;;;;;;5071070;28;20040;-71
2023/06/08 04:54:05;;;;;;;19.27;9.00;;;12.60;99.90;;;;;;5067530;28;20457;-72
2023/06/08 04:56:33;;;;;;;18.35;8.40;;;12.50;99.90;;;;;;5071369;28;20044;-71
2023/06/08 04:58:59;;;;;;;16.88;8.23;;;12.50;99.90;;;;;;5071508;28;20105;-71
2023/06/08 05:01:25;;;;;;;16.42;8.65;;;12.60;99.90;;;;;;5067478;28;20033;-71
2023/06/08 05:03:51;;;;;;;18.77;7.78;;;12.60;99.90;;;;;;5071253;28;20086;-71
2023/06/08 05:06:16;;;;;;;15.95;6.53;;;12.50;99.90;;;;;;5071293;28;20448;-71
2023/06/08 05:08:42;;;;;;;12.85;6.60;;;12.50;99.90;;;;;;5071565;28;20040;-71
2023/06/08 05:11:08;;;;;;;13.18;7.40;;;12.50;99.90;;;;;;5072057;28;20041;-71
2023/06/08 05:13:34;;;;;;;16.75;7.75;;;12.60;99.90;;;;;;5071400;28;20387;-71
2023/06/08 05:16:00;;;;;;;15.27;6.60;;;12.70;99.90;;;;;;5070234;28;20090;-71
2023/06/08 05:18:26;;;;;;;11.55;6.57;;;12.70;99.90;;;;;;5071325;28;20078;-71
2023/06/08 05:20:51;;;;;;;15.07;6.78;;;12.70;99.90;;;;;;5070374;28;20044;-71
2023/06/08 05:23:17;;;;;;;15.52;6.70;;;12.80;99.90;;;;;;5077406;22;20399;-65
2023/06/08 05:25:43;;;;;;;15.60;7.45;;;12.70;99.90;;;;;;5011818;28;20161;-66
2023/06/08 05:28:09;;;;;;;13.30;8.43;;;12.80;99.90;;;;;;5011234;28;20221;-66
2023/06/08 05:30:35;;;;;;;14.52;7.57;;;12.90;99.90;;;;;;5011159;28;20045;-66
2023/06/08 05:33:00;;;;;;;14.73;7.55;;;13.00;99.90;;;;;;5011294;28;20038;-66
2023/06/08 05:35:26;;;;;;;16.17;6.45;;;13.10;99.90;;;;;;5011375;28;20034;-65
2023/06/08 05:37:52;;;;;;;20.70;7.35;;;13.20;99.90;;;;;;5011393;28;20042;-66
2023/06/08 05:40:18;;;;;;;16.08;8.00;;;13.20;99.90;;;;;;5011474;28;20121;-66
2023/06/08 05:42:44;;;;;;;19.25;7.22;;;13.30;99.90;;;;;;5011450;28;20065;-66
2023/06/08 05:45:11;;;;;;;19.38;6.18;;;13.30;99.90;;;;;;5011355;28;20038;-65
2023/06/08 05:47:37;;;;;;;15.25;5.70;;;13.30;99.90;;;;;;5011310;28;20077;-66
2023/06/08 05:50:02;;;;;;;18.33;6.50;;;13.30;99.90;;;;;;5011216;28;20073;-66
2023/06/08 05:52:29;;;;;;;13.48;5.50;;;13.40;99.90;;;;;;5011559;28;20037;-66
2023/06/08 05:54:55;;;;;;;15.23;6.47;;;13.50;99.90;;;;;;5011362;28;20269;-66
2023/06/08 05:57:21;;;;;;;15.68;6.15;;;13.60;99.90;;;;;;5011037;28;20068;-66
2023/06/08 05:59:46;;;;;;;11.45;5.13;;;13.60;99.90;;;;;;5011204;28;20042;-65
2023/06/08 06:02:13;;;;;;;13.82;5.35;;;13.50;99.90;;;;;;5010874;28;20045;-66
2023/06/08 06:04:38;;;;;;;18.05;6.40;;;13.50;99.90;;;;;;5012785;28;20038;-66
2023/06/08 06:07:06;;;;;;;16.15;5.65;;;13.60;99.90;;;;;;5014765;28;20184;-66
2023/06/08 06:09:31;;;;;;;18.55;6.00;;;13.70;99.90;;;;;;5014419;28;20494;-65
2023/06/08 06:11:57;;;;;;;15.30;5.45;;;13.80;99.90;;;;;;5014736;28;20120;-66
2023/06/08 06:14:23;;;;;;;10.02;4.78;;;14.00;99.90;;;;;;5014491;28;20125;-66
2023/06/08 06:16:48;;;;;;;11.15;5.03;;;14.20;99.90;;;;;;5014294;28;20042;-66
2023/06/08 06:19:14;;;;;;;12.70;5.25;;;14.30;99.90;;;;;;5014235;28;20034;-66
2023/06/08 06:21:40;;;;;;;16.52;5.90;;;14.50;99.90;;;;;;5014583;28;20042;-66
2023/06/08 06:24:06;;;;;;;11.50;5.57;;;14.60;99.90;;;;;;5014247;28;20109;-66
2023/06/08 06:26:31;;;;;;;11.55;4.85;;;14.90;99.90;;;;;;5014352;28;20080;-66
2023/06/08 06:28:57;;;;;;;12.25;5.63;;;15.40;99.90;;;;;;5014218;28;20046;-66
2023/06/08 06:31:22;;;;;;;11.20;5.43;;;15.80;99.90;;;;;;5014256;28;20046;-65
2023/06/08 06:33:48;;;;;;;11.80;5.03;;;15.80;99.90;;;;;;5014026;28;20132;-66
2023/06/08 06:36:13;;;;;;;12.38;4.88;;;16.20;99.90;;;;;;5014272;28;20456;-66
2023/06/08 06:38:39;;;;;;;15.57;5.03;;;16.30;99.90;;;;;;5013583;28;20037;-66
2023/06/08 06:41:05;;;;;;;14.52;5.10;;;16.70;99.90;;;;;;5013701;28;20090;-66
2023/06/08 06:43:30;;;;;;;14.88;5.53;;;16.90;99.90;;;;;;5012273;28;20493;-66
2023/06/08 06:45:56;;;;;;;14.30;5.35;;;17.00;99.90;;;;;;5014063;28;20060;-65
2023/06/08 06:48:22;;;;;;;8.73;4.03;;;17.10;99.90;;;;;;5013794;28;20042;-66
2023/06/08 06:50:48;;;;;;;16.45;4.80;;;17.30;99.90;;;;;;5014023;28;20033;-66
2023/06/08 06:53:14;;;;;;;18.25;5.80;;;17.50;99.90;;;;;;5013962;28;20460;-66
2023/06/08 06:55:42;;;;;;;11.05;4.30;;;17.70;99.90;;;;;;5013855;28;20540;-66
2023/06/08 06:58:08;;;;;;;12.70;4.50;;;17.30;99.90;;;;;;5013744;28;20030;-66
2023/06/08 07:00:37;;;;;;;13.65;4.85;;;17.90;99.90;;;;;;5013610;28;20508;-66
2023/06/08 07:03:09;;;;;;;14.45;4.47;;;18.00;99.90;;;;;;5013768;28;20056;-66
2023/06/08 07:05:35;;;;;;;11.27;4.38;;;18.20;99.90;;;;;;5013822;28;20041;-66
2023/06/08 07:08:01;;;;;;;9.02;3.92;;;18.30;99.90;;;;;;5013620;28;20053;-67
2023/06/08 07:10:26;;;;;;;10.68;4.28;;;18.60;99.90;;;;;;5013464;28;20409;-66
2023/06/08 07:12:52;;;;;;;9.18;4.07;;;18.30;99.90;;;;;;5013427;28;20042;-66
2023/06/08 07:15:18;;;;;;;11.52;4.18;;;18.70;99.90;;;;;;5012833;28;20121;-66
2023/06/08 07:17:45;;;;;;;10.20;4.07;;;19.00;99.90;;;;;;5013596;28;20038;-66
2023/06/08 07:20:12;;;;;;;12.35;4.47;;;19.10;99.90;;;;;;5012952;28;20046;-66
2023/06/08 07:22:37;;;;;;;11.48;4.40;;;19.60;99.90;;;;;;5012619;28;20033;-66
2023/06/08 07:25:04;;;;;;;9.48;4.25;;;19.50;99.90;;;;;;5012655;28;20030;-66
2023/06/08 07:27:31;;;;;;;7.22;3.53;;;19.40;99.90;;;;;;5012661;28;20424;-66
2023/06/08 07:29:57;;;;;;;17.08;4.40;;;19.60;99.90;;;;;;5012457;28;20122;-66
2023/06/08 07:32:22;;;;;;;8.20;3.75;;;19.40;98.70;;;;;;5012879;28;20111;-66
2023/06/08 07:34:48;;;;;;;9.63;3.92;;;19.50;98.90;;;;;;5012450;28;20057;-66
2023/06/08 07:37:14;;;;;;;14.75;4.82;;;19.50;98.50;;;;;;5012129;28;20096;-66
2023/06/08 07:39:39;;;;;;;12.63;4.38;;;19.50;99.10;;;;;;5012432;28;20049;-66
2023/06/08 07:42:05;;;;;;;9.85;3.80;;;19.50;98.50;;;;;;5013037;28;20040;-66
2023/06/08 07:44:31;;;;;;;11.98;4.03;;;19.20;99.30;;;;;;5012756;28;20052;-66
2023/06/08 07:46:57;;;;;;;10.88;4.18;;;19.60;99.10;;;;;;5012996;28;20125;-66
2023/06/08 07:49:23;;;;;;;10.05;4.03;;;19.40;99.00;;;;;;5012897;28;20038;-66
2023/06/08 07:51:52;;;;;;;8.45;3.72;;;19.50;99.00;;;;;;5012983;28;20483;-66
2023/06/08 07:54:19;;;;;;;10.68;3.70;;;19.90;98.50;;;;;;5012388;28;20096;-66
2023/06/08 07:56:48;;;;;;;12.98;4.40;;;20.00;97.90;;;;;;5012605;28;20092;-67
2023/06/08 07:59:14;;;;;;;11.93;4.90;;;20.00;97.00;;;;;;5012477;28;20402;-66
2023/06/08 08:01:41;;;;;;;14.50;4.15;;;19.90;97.40;;;;;;5012793;28;20457;-66
2023/06/08 08:04:06;;;;;;;14.50;4.68;;;20.00;97.40;;;;;;5012618;28;20052;-66
2023/06/08 08:06:32;;;;;;;10.15;4.50;;;20.10;97.20;;;;;;5012586;28;20506;-67
2023/06/08 08:08:57;;;;;;;13.27;4.13;;;20.00;96.40;;;;;;5012490;28;20041;-67
2023/06/08 08:11:23;;;;;;;10.13;4.75;;;20.00;95.70;;;;;;5012555;28;20037;-67
2023/06/08 08:13:49;;;;;;;7.28;4.32;;;20.20;95.90;;;;;;5012248;28;20498;-66
2023/06/08 08:16:15;;;;;;;8.50;4.00;;;20.20;95.80;;;;;;5012172;28;20549;-67
2023/06/08 08:18:40;;;;;;;10.90;4.40;;;19.70;96.90;;;;;;5012066;28;20081;-66
2023/06/08 08:21:06;;;;;;;8.23;4.13;;;20.20;96.60;;;;;;5012141;28;20037;-67
2023/06/08 08:23:32;;;;;;;16.55;4.30;;;20.50;96.10;;;;;;5012018;28;20049;-67
2023/06/08 08:25:57;;;;;;;16.77;5.05;;;20.80;96.60;;;;;;5012082;28;20029;-67
2023/06/08 08:28:23;;;;;;;12.73;4.60;;;20.80;94.80;;;;;;5011487;28;20042;-66
2023/06/08 08:30:48;;;;;;;9.43;4.70;;;20.50;93.10;;;;;;5012259;28;20045;-66
2023/06/08 08:33:14;;;;;;;10.73;4.68;;;20.30;93.40;;;;;;5012097;28;20040;-66
2023/06/08 08:35:40;;;;;;;13.05;3.97;;;20.30;93.30;;;;;;5012180;28;20033;-66
2023/06/08 08:38:05;;;;;;;10.45;4.43;;;20.60;94.50;;;;;;5011897;28;20573;-67
2023/06/08 08:40:31;;;;;;;10.43;4.43;;;20.80;94.40;;;;;;5011898;28;20046;-67
2023/06/08 08:43:23;;;;;;;14.23;4.80;;;20.70;94.40;;;;;;5011806;28;20045;-67
2023/06/08 08:45:50;;;;;;;10.65;3.78;;;21.00;93.60;;;;;;5005832;28;20081;-67
2023/06/08 08:48:21;;;;;;;10.10;4.32;;;21.00;92.90;;;;;;5011937;28;20045;-67
2023/06/08 08:50:53;;;;;;;10.82;4.65;;;21.20;93.30;;;;;;5011854;28;20497;-66
2023/06/08 08:53:23;;;;;;;12.23;4.20;;;21.00;94.40;;;;;;5011284;28;20105;-67
2023/06/08 08:55:48;;;;;;;13.30;4.78;;;20.90;94.00;;;;;;5011493;28;20099;-67
2023/06/08 08:58:18;;;;;;;8.13;3.75;;;21.10;93.30;;;;;;5011388;28;20034;-67
2023/06/08 09:00:48;;;;;;;11.18;4.22;;;21.00;93.20;;;;;;5010187;28;20470;-66
2023/06/08 09:03:15;;;;;;;12.65;4.63;;;20.70;94.40;;;;;;5011856;28;20061;-66
2023/06/08 09:05:43;;;;;;;11.45;4.07;;;20.50;94.80;;;;;;5011675;28;20398;-66
2023/06/08 09:08:09;;;;;;;14.65;4.70;;;21.00;94.70;;;;;;5011790;28;20107;-67
2023/06/08 09:10:35;;;;;;;11.82;5.07;;;20.90;94.30;;;;;;5011625;28;20490;-66
2023/06/08 09:13:02;;;;;;;10.07;4.60;;;21.30;93.90;;;;;;5011716;28;20045;-66
2023/06/08 09:15:37;;;;;;;14.30;3.97;;;21.70;93.80;;;;;;5011797;28;20468;-67
2023/06/08 09:18:15;;;;;;;12.93;4.47;;;21.80;93.00;;;;;;5011477;28;20050;-67
2023/06/08 09:20:41;;;;;;;10.13;4.50;;;21.80;91.80;;;;;;5011707;28;20042;-69
2023/06/08 09:23:20;;;;;;;11.70;4.30;;;21.60;91.20;;;;;;5011641;28;20048;-67
2023/06/08 09:25:47;;;;;;;13.23;4.18;;;21.70;91.50;;;;;;5011687;28;20049;-67
2023/06/08 09:28:26;;;;;;;12.20;4.32;;;21.70;91.60;;;;;;5011480;28;20568;-66
2023/06/08 09:30:52;;;;;;;10.30;3.67;;;21.50;90.40;;;;;;5011457;28;20037;-67
2023/06/08 09:33:23;;;;;;;9.50;3.65;;;21.50;91.60;;;;;;5011639;28;20073;-66
2023/06/08 09:35:58;;;;;;;9.30;4.35;;;21.30;92.20;;;;;;5011627;28;20069;-66
2023/06/08 09:38:28;;;;;;;9.20;4.32;;;21.40;92.70;;;;;;5012904;28;20096;-66
2023/06/08 09:41:16;;;;;;;10.13;3.70;;;21.20;92.10;;;;;;5015103;28;20046;-66
2023/06/08 09:43:43;;;;;;;9.80;3.65;;;21.40;91.60;;;;;;5015267;28;20037;-66
2023/06/08 09:46:16;;;;;;;8.63;4.35;;;21.60;91.80;;;;;;5015176;28;20046;-67
2023/06/08 09:48:54;;;;;;;8.57;3.97;;;21.50;90.40;;;;;;5015142;28;20077;-67
2023/06/08 09:51:22;;;;;;;10.52;4.05;;;21.50;89.70;;;;;;5015095;28;20048;-66
2023/06/08 09:53:52;;;;;;;12.50;3.90;;;21.20;91.70;;;;;;5014765;28;20052;-67
2023/06/08 09:56:22;;;;;;;11.07;3.67;;;21.40;92.40;;;;;;5014971;28;20041;-66
2023/06/08 09:58:53;;;;;;;10.02;3.42;;;21.10;93.70;;;;;;5014707;28;20679;-66
2023/06/08 10:01:27;;;;;;;8.98;3.63;;;21.40;93.80;;;;;;5014776;28;20510;-66
2023/06/08 10:03:57;;;;;;;9.30;4.03;;;21.40;92.60;;;;;;5014739;28;20038;-66
2023/06/08 10:06:23;;;;;;;11.27;4.43;;;21.10;92.50;;;;;;5013988;28;20045;-65
2023/06/08 10:08:53;;;;;;;8.60;3.95;;;20.90;93.50;;;;;;5014322;28;20191;-66
2023/06/08 10:11:20;;;;;;;8.35;3.35;;;21.10;93.30;;;;;;5014064;28;20080;-66
2023/06/08 10:13:46;;;;;;;10.07;3.67;;;21.10;93.10;;;;;;5011480;28;20045;-66
2023/06/08 10:16:11;;;;;;;13.48;3.47;;;21.20;92.80;;;;;;5013968;28;20050;-66
2023/06/08 10:18:38;;;;;;;11.20;3.85;;;20.90;93.60;;;;;;5013857;28;20069;-66
2023/06/08 10:21:05;;;;;;;10.02;3.95;;;21.20;93.10;;;;;;5014234;28;20030;-66
2023/06/08 10:23:32;;;;;;;7.80;3.00;;;20.80;93.60;;;;;;5014327;28;20046;-66
2023/06/08 10:25:58;;;;;;;15.00;5.15;;;20.90;94.10;;;;;;5014408;28;20485;-66
2023/06/08 10:28:23;;;;;;;9.30;3.85;;;20.80;93.60;;;;;;5014319;28;20116;-66
2023/06/08 10:30:49;;;;;;;10.45;3.70;;;21.00;92.50;;;;;;5014233;28;20129;-66
2023/06/08 10:33:19;;;;;;;8.25;3.85;;;21.00;92.10;;;;;;5006429;28;20070;-66
2023/06/08 10:36:07;;;;;;;10.65;4.10;;;20.90;92.80;;;;;;5014317;28;20034;-65
2023/06/08 10:38:53;;;;;;;13.05;3.55;;;20.90;93.50;;;;;;5013952;28;20117;-65
2023/06/08 10:41:38;;;;;;;9.25;3.90;;;20.80;93.60;;;;;;5005901;28;20049;-65
2023/06/08 10:44:04;;;;;;;9.57;4.05;;;20.60;94.20;;;;;;4994660;28;20038;-66
2023/06/08 10:46:43;;;;;;;10.70;4.28;;;20.80;94.10;;;;;;4994747;28;20044;-65
2023/06/08 10:49:09;;;;;;;11.63;4.32;;;20.80;94.40;;;;;;4992602;28;20042;-66
2023/06/08 10:51:44;;;;;;;13.77;4.53;;;21.00;94.30;;;;;;4994012;28;20042;-66
2023/06/08 10:54:21;;;;;;;10.43;4.20;;;21.00;94.40;;;;;;4994263;28;20457;-66
2023/06/08 10:56:52;;;;;;;8.40;3.80;;;20.90;94.10;;;;;;4994342;28;20038;-65
2023/06/08 10:59:33;;;;;;;7.63;4.28;;;20.80;94.40;;;;;;4994073;28;20403;-66
2023/06/08 11:02:04;;;;;;;8.27;3.70;;;20.80;94.40;;;;;;4994292;28;20042;-66
2023/06/08 11:04:31;;;;;;;10.95;4.43;;;21.00;94.40;;;;;;4994098;28;20137;-66
2023/06/08 11:07:01;;;;;;;11.40;3.72;;;21.00;94.90;;;;;;4994271;28;20130;-66
2023/06/08 11:09:31;;;;;;;12.07;4.15;;;21.10;94.60;;;;;;4994100;28;20038;-66
2023/06/08 11:11:58;;;;;;;8.75;3.72;;;21.10;94.30;;;;;;4994187;28;20042;-66
2023/06/08 11:14:23;;;;;;;10.00;4.10;;;21.00;94.00;;;;;;4993845;28;20039;-66
2023/06/08 11:16:54;;;;;;;9.07;3.90;;;20.90;94.40;;;;;;4993754;28;20462;-66
2023/06/08 11:19:20;;;;;;;11.75;4.28;;;20.90;94.20;;;;;;4993653;28;20121;-66
2023/06/08 11:21:50;;;;;;;12.23;4.47;;;20.90;94.90;;;;;;4993960;28;20038;-66
2023/06/08 11:24:16;;;;;;;12.02;4.50;;;20.70;94.90;;;;;;5026170;23;20076;-68
2023/06/08 11:26:42;;;;;;;9.90;4.80;;;20.80;94.80;;;;;;5002785;28;20034;-71
2023/06/08 11:29:08;;;;;;;11.18;4.45;;;20.50;95.40;;;;;;5006379;28;20532;-71
2023/06/08 11:31:40;;;;;;;7.28;3.80;;;20.30;95.80;;;;;;5011931;28;20049;-71
2023/06/08 11:34:11;;;;;;;8.55;3.95;;;20.40;95.80;;;;;;5011792;28;20041;-70
2023/06/08 11:36:38;;;;;;;8.60;4.70;;;20.60;95.90;;;;;;5011894;28;20143;-70
2023/06/08 11:39:06;;;;;;;8.75;4.25;;;20.60;95.70;;;;;;5011700;28;20045;-70
2023/06/08 11:41:31;;;;;;;10.27;4.13;;;20.70;95.20;;;;;;5012007;28;20421;-70
2023/06/08 11:43:57;;;;;;;13.90;4.63;;;20.60;95.40;;;;;;5003997;28;20049;-70
2023/06/08 11:46:24;;;;;;;8.57;3.75;;;20.70;95.10;;;;;;4998383;28;20058;-69
2023/06/08 11:48:49;;;;;;;9.93;4.15;;;20.60;95.10;;;;;;4991914;28;20494;-70
2023/06/08 11:51:18;;;;;;;8.18;4.40;;;20.60;95.40;;;;;;4993283;28;20137;-69
2023/06/08 11:53:47;;;;;;;9.60;4.50;;;20.50;95.50;;;;;;4991950;28;20042;-70
2023/06/08 11:56:13;;;;;;;13.48;4.72;;;20.40;95.50;;;;;;4993088;28;20047;-70
2023/06/08 11:58:40;;;;;;;8.88;3.88;;;20.30;95.90;;;;;;4992918;28;20030;-70
2023/06/08 12:01:11;;;;;;;14.82;4.40;;;20.30;96.30;;;;;;4993299;28;20184;-71
2023/06/08 12:03:43;;;;;;;15.25;3.95;;;20.40;96.10;;;;;;4995563;28;20065;-70
2023/06/08 12:06:09;;;;;;;10.15;4.05;;;20.40;96.40;;;;;;4993022;28;20516;-70
2023/06/08 12:08:35;;;;;;;15.98;4.55;;;20.50;96.30;;;;;;4991835;28;20117;-70
2023/06/08 12:11:10;;;;;;;10.20;3.63;;;20.50;96.00;;;;;;4993332;28;20126;-70
2023/06/08 12:13:38;;;;;;;12.38;3.90;;;20.60;94.90;;;;;;5000886;28;20407;-70
2023/06/08 12:16:09;;;;;;;6.35;3.05;;;20.40;95.30;;;;;;4994904;28;20050;-70
2023/06/08 12:18:42;;;;;;;9.13;3.47;;;20.40;95.90;;;;;;4992969;28;20502;-70
2023/06/08 12:21:13;;;;;;;10.30;3.60;;;20.40;95.50;;;;;;4992005;28;20042;-71
2023/06/08 12:23:39;;;;;;;5.55;2.85;;;20.40;95.10;;;;;;4992602;28;20049;-70
2023/06/08 12:26:05;;;;;;;9.13;4.00;;;20.50;95.30;;;;;;4992970;28;20039;-69
2023/06/08 12:28:32;;;;;;;6.88;3.28;;;20.40;94.70;;;;;;4992797;28;20039;-70
2023/06/08 12:31:00;;;;;;;11.88;3.47;;;20.30;94.80;;;;;;4992126;28;20113;-70
2023/06/08 12:33:26;;;;;;;7.70;3.40;;;20.40;95.30;;;;;;4992700;28;20038;-70
2023/06/08 12:35:53;;;;;;;9.40;3.28;;;20.60;95.00;;;;;;4991599;28;20134;-71
2023/06/08 12:38:22;;;;;;;8.65;4.20;;;20.60;94.90;;;;;;4991373;28;20045;-70
2023/06/08 12:40:50;;;;;;;10.65;4.25;;;20.20;94.40;;;;;;4991679;28;20446;-70